This is the latest recevied weather packets stored in our database for station/object E20EHQ-13. If no packets are shown the sender has not sent any weather packets the latest 1 day(s).
| Time | Temp. | Humidity | Pressure | Rain* | Wind** | Luminosity | Snow |
|---|---|---|---|---|---|---|---|
| 1778096962 | 29.44° C | 88% | 1006.6 hPa | 0 mm | - | 1 W/m² | - |
| 1778096662 | 29.44° C | 88% | 1006.7 hPa | 0 mm | - | 1 W/m² | - |
| 1778096062 | 29.44° C | 88% | 1006.5 hPa | 0 mm | - | 1 W/m² | - |
| 1778095762 | 29.44° C | 88% | 1006.5 hPa | 0 mm | - | 1 W/m² | - |
| 1778095462 | 29.44° C | 88% | 1006.6 hPa | 0 mm | - | 1 W/m² | - |
| 1778093662 | 29.44° C | 87% | 1006.6 hPa | 0 mm | - | 1 W/m² | - |
| 1778093362 | 29.44° C | 87% | 1006.6 hPa | 0 mm | - | 1 W/m² | - |
| 1778092762 | 29.44° C | 87% | 1006.7 hPa | 0 mm | - | 1 W/m² | - |
| 1778092462 | 29.44° C | 86% | 1006.6 hPa | 0 mm | - | 1 W/m² | - |
| 1778092162 | 29.44° C | 86% | 1006.7 hPa | 0 mm | - | 1 W/m² | - |
| 1778081062 | 30° C | 84% | 1007.6 hPa | 0 mm | - | 1 W/m² | - |
| 1778078880 | 30° C | 83% | 1007.4 hPa | 0 mm | - | 1 W/m² | - |
| 1778074380 | 30.56° C | 82% | 1006.8 hPa | 0 mm | - | 1 W/m² | - |
| 1778070480 | 30.56° C | 80% | 1006.4 hPa | 0 mm | - | 1 W/m² | - |
| 1778065980 | 32.22° C | 73% | 1004.8 hPa | 0 mm | - | 57 W/m² | - |
| 1778062979 | 33.33° C | 66% | 1004.4 hPa | 0 mm | - | 151 W/m² | - |
| 1778062380 | 32.78° C | 67% | 1004.5 hPa | 0 mm | - | 163 W/m² | - |
| 1778061780 | 32.22° C | 70% | 1004.4 hPa | 0 mm | - | 185 W/m² | - |
| 1778059079 | 32.22° C | 72% | 1004.7 hPa | 0 mm | - | 231 W/m² | - |
| 1778058180 | 31.67° C | 73% | 1004.7 hPa | 0 mm | - | 246 W/m² | - |
| 1778057880 | 31.67° C | 73% | 1004.8 hPa | 0 mm | - | 246 W/m² | - |
| 1778057579 | 31.11° C | 72% | 1004.8 hPa | 0 mm | - | 245 W/m² | - |
| 1778055479 | 32.78° C | 70% | 1005 hPa | 0 mm | - | 277 W/m² | - |
| 1778054879 | 32.78° C | 69% | 1005.1 hPa | 0 mm | - | 323 W/m² | - |
| 1778054280 | 33.33° C | 67% | 1005.3 hPa | 0 mm | - | 403 W/m² | - |
* Rain latest hour (hover to see other rain measurements)
** Current wind speed in m/s (hover to see current wind gust speed)